NORTHEAST SUFFOLK  -  Winter Weather Advisory Winter Weather Advisory        NORTHERN NASSAU  -  Winter Weather Advisory Winter Weather Advisory        NORTHWEST SUFFOLK  -  Winter Weather Advisory Winter Weather Advisory        SOUTHEAST SUFFOLK  -  Winter Weather Advisory Winter Weather Advisory        SOUTHERN NASSAU  -  Winter Weather Advisory Winter Weather Advisory        SOUTHWEST SUFFOLK  -  Winter Weather Advisory Winter Weather Advisory      

Active alerts

Northern Nassau
  Details for Northern Nassau Winter Weather Advisory
Southern Nassau
  Details for Southern Nassau Winter Weather Advisory
Northwest Suffolk
  Details for Northwest Suffolk Winter Weather Advisory
Southwest Suffolk
  Details for Southwest Suffolk Winter Weather Advisory
Northeast Suffolk
  Details for Northeast Suffolk Winter Weather Advisory
Southeast Suffolk
  Details for Southeast Suffolk Winter Weather Advisory


WXM80 ListenWXM80 Stop

You find our weather info also at:

UK Metoffice

WeatherCloud

Weather Underground

Northeastern Weather Network

AWEKAS

Citizen Weather Observer Program (CWOP)

HAMweather, WeatherForYou, PWS Weather


Weather Underground History page Text

Daily Summary for September 8, 2017 Units:  Both    English   Metric
« Previous Day
Next Day »
Daily Weekly Monthly Yearly Custom
  High: Low: Average:
Temperature: 77.8 °F /  25.4 °C 56.3 °F /  13.5 °C 65.9 °F /  18.8 °C
Dew Point: 59.6 °F /  15.3 °C 51.8 °F /  11 °C 54.3 °F /  12.4 °C
Humidity: 89 % 46 % 68 %
Wind Speed: 6.7 mph /  10.8 km/h - 2.2 mph /  3.5 km/h
Wind Gust: 12.0 mph /  19.3 km/h - -
Wind:- - WSW
Pressure: 30.12 in /  1019.9 hPa 29.95 in /  1014.1 hPa -
Precipitation: 0.00 in /  0 mm    
Historical Graphs
 
 
Tabular Data for September 8, 2017
Time Temperature Dew Point Pressure Wind Wind Speed Wind Gust Humidity Rainfall Rate (Hourly)
00:00 61.7 °F /  16.5 °C 53.3 °F /  11.8 °C 29.95 in /  1014.1 hPa Calm   2.3 mph /  3.7 km/h 74 % 0.00 in /  0 mm
00:05 61.6 °F /  16.4 °C 53.2 °F /  11.8 °C 29.95 in /  1014.1 hPa Calm   1.2 mph /  1.9 km/h 74 % 0.00 in /  0 mm
00:10 61.5 °F /  16.4 °C 53.1 °F /  11.7 °C 29.96 in /  1014.4 hPa SSW 0.7 mph /  1.1 km/h 3.5 mph /  5.6 km/h 74 % 0.00 in /  0 mm
00:15 61.4 °F /  16.3 °C 52.7 °F /  11.5 °C 29.96 in /  1014.4 hPa SSW 2.1 mph /  3.4 km/h 3.5 mph /  5.6 km/h 73 % 0.00 in /  0 mm
00:18 61.4 °F /  16.3 °C 52.7 °F /  11.5 °C 29.96 in /  1014.4 hPa West 0.3 mph /  0.5 km/h 4.6 mph /  7.4 km/h 73 % 0.00 in /  0 mm
00:23 61.4 °F /  16.3 °C 52.7 °F /  11.5 °C 29.96 in /  1014.4 hPa WSW 0.9 mph /  1.4 km/h 3.5 mph /  5.6 km/h 73 % 0.00 in /  0 mm
00:28 61.3 °F /  16.3 °C 52.6 °F /  11.4 °C 29.96 in /  1014.4 hPa WSW 0.1 mph /  0.2 km/h 2.3 mph /  3.7 km/h 73 % 0.00 in /  0 mm
00:33 61.3 °F /  16.3 °C 52.9 °F /  11.6 °C 29.96 in /  1014.4 hPa SW 2.3 mph /  3.7 km/h 5.0 mph /  8 km/h 74 % 0.00 in /  0 mm
00:38 61.3 °F /  16.3 °C 52.9 °F /  11.6 °C 29.96 in /  1014.4 hPa SW 2.6 mph /  4.2 km/h 3.5 mph /  5.6 km/h 74 % 0.00 in /  0 mm
00:43 61.4 °F /  16.3 °C 53.0 °F /  11.7 °C 29.97 in /  1014.8 hPa SW 2.7 mph /  4.3 km/h 5.8 mph /  9.3 km/h 74 % 0.00 in /  0 mm
00:48 61.5 °F /  16.4 °C 53.1 °F /  11.7 °C 29.97 in /  1014.8 hPa WSW 2.9 mph /  4.7 km/h 5.0 mph /  8 km/h 74 % 0.00 in /  0 mm
00:53 61.7 °F /  16.5 °C 53.0 °F /  11.7 °C 29.97 in /  1014.8 hPa WSW 3.5 mph /  5.6 km/h 5.0 mph /  8 km/h 73 % 0.00 in /  0 mm
00:58 61.9 °F /  16.6 °C 53.1 °F /  11.7 °C 29.97 in /  1014.8 hPa WSW 2.1 mph /  3.4 km/h 6.0 mph /  9.7 km/h 73 % 0.00 in /  0 mm
01:03 62.0 °F /  16.7 °C 53.2 °F /  11.8 °C 29.97 in /  1014.8 hPa WSW 1.1 mph /  1.8 km/h 5.0 mph /  8 km/h 73 % 0.00 in /  0 mm
01:08 62.1 °F /  16.7 °C 53.0 °F /  11.7 °C 29.97 in /  1014.8 hPa SW 0.3 mph /  0.5 km/h 4.6 mph /  7.4 km/h 72 % 0.00 in /  0 mm
01:13 62.2 °F /  16.8 °C 53.1 °F /  11.7 °C 29.97 in /  1014.8 hPa WSW 0.9 mph /  1.4 km/h 3.5 mph /  5.6 km/h 72 % 0.00 in /  0 mm
01:18 62.2 °F /  16.8 °C 53.1 °F /  11.7 °C 29.97 in /  1014.8 hPa WSW 1.0 mph /  1.6 km/h 2.3 mph /  3.7 km/h 72 % 0.00 in /  0 mm
01:23 62.2 °F /  16.8 °C 53.1 °F /  11.7 °C 29.97 in /  1014.8 hPa WSW 1.6 mph /  2.6 km/h 3.5 mph /  5.6 km/h 72 % 0.00 in /  0 mm
01:28 62.1 °F /  16.7 °C 53.0 °F /  11.7 °C 29.97 in /  1014.8 hPa SW 0.2 mph /  0.3 km/h 3.5 mph /  5.6 km/h 72 % 0.00 in /  0 mm
01:33 62.0 °F /  16.7 °C 53.2 °F /  11.8 °C 29.97 in /  1014.8 hPa WSW 1.0 mph /  1.6 km/h 4.0 mph /  6.4 km/h 73 % 0.00 in /  0 mm
01:38 62.0 °F /  16.7 °C 53.2 °F /  11.8 °C 29.97 in /  1014.8 hPa WNW 0.5 mph /  0.8 km/h 2.0 mph /  3.2 km/h 73 % 0.00 in /  0 mm
01:43 61.9 °F /  16.6 °C 53.1 °F /  11.7 °C 29.97 in /  1014.8 hPa SW 1.7 mph /  2.7 km/h 3.5 mph /  5.6 km/h 73 % 0.00 in /  0 mm
01:48 61.8 °F /  16.6 °C 53.4 °F /  11.9 °C 29.97 in /  1014.8 hPa WSW 0.4 mph /  0.6 km/h 4.6 mph /  7.4 km/h 74 % 0.00 in /  0 mm
01:53 61.7 °F /  16.5 °C 53.3 °F /  11.8 °C 29.97 in /  1014.8 hPa Calm   1.2 mph /  1.9 km/h 74 % 0.00 in /  0 mm
01:58 61.6 °F /  16.4 °C 53.2 °F /  11.8 °C 29.97 in /  1014.8 hPa WSW 0.2 mph /  0.3 km/h 2.3 mph /  3.7 km/h 74 % 0.00 in /  0 mm
02:03 61.5 °F /  16.4 °C 53.1 °F /  11.7 °C 29.97 in /  1014.8 hPa West 2.0 mph /  3.2 km/h 2.3 mph /  3.7 km/h 74 % 0.00 in /  0 mm
02:08 61.3 °F /  16.3 °C 52.9 °F /  11.6 °C 29.97 in /  1014.8 hPa WSW 1.0 mph /  1.6 km/h 1.2 mph /  1.9 km/h 74 % 0.00 in /  0 mm
02:13 61.3 °F /  16.3 °C 53.3 °F /  11.8 °C 29.97 in /  1014.8 hPa Calm   1.2 mph /  1.9 km/h 75 % 0.00 in /  0 mm
02:18 61.3 °F /  16.3 °C 53.3 °F /  11.8 °C 29.97 in /  1014.8 hPa WSW 0.3 mph /  0.5 km/h 3.0 mph /  4.8 km/h 75 % 0.00 in /  0 mm
02:23 61.2 °F /  16.2 °C 53.2 °F /  11.8 °C 29.98 in /  1015.1 hPa Calm     75 % 0.00 in /  0 mm
02:28 61.1 °F /  16.2 °C 53.1 °F /  11.7 °C 29.98 in /  1015.1 hPa WSW 1.3 mph /  2.1 km/h 2.3 mph /  3.7 km/h 75 % 0.00 in /  0 mm
02:34 60.9 °F /  16.1 °C 52.9 °F /  11.6 °C 29.98 in /  1015.1 hPa WSW 1.3 mph /  2.1 km/h 2.3 mph /  3.7 km/h 75 % 0.00 in /  0 mm
02:38 60.8 °F /  16 °C 52.8 °F /  11.6 °C 29.98 in /  1015.1 hPa Calm     75 % 0.00 in /  0 mm
02:44 60.7 °F /  15.9 °C 52.7 °F /  11.5 °C 29.98 in /  1015.1 hPa SW 0.2 mph /  0.3 km/h 2.3 mph /  3.7 km/h 75 % 0.00 in /  0 mm
02:49 60.4 °F /  15.8 °C 52.4 °F /  11.3 °C 29.98 in /  1015.1 hPa WSW 0.2 mph /  0.3 km/h 3.5 mph /  5.6 km/h 75 % 0.00 in /  0 mm
02:54 60.3 °F /  15.7 °C 52.3 °F /  11.3 °C 29.98 in /  1015.1 hPa WSW 0.5 mph /  0.8 km/h 2.3 mph /  3.7 km/h 75 % 0.00 in /  0 mm
02:59 60.1 °F /  15.6 °C 52.1 °F /  11.2 °C 29.99 in /  1015.5 hPa SW 0.1 mph /  0.2 km/h 1.2 mph /  1.9 km/h 75 % 0.00 in /  0 mm
03:04 59.9 °F /  15.5 °C 52.0 °F /  11.1 °C 29.98 in /  1015.1 hPa Calm   2.3 mph /  3.7 km/h 75 % 0.00 in /  0 mm
03:09 59.8 °F /  15.4 °C 52.2 °F /  11.2 °C 29.98 in /  1015.1 hPa SW 0.4 mph /  0.6 km/h 2.3 mph /  3.7 km/h 76 % 0.00 in /  0 mm
03:10 59.8 °F /  15.4 °C 52.2 °F /  11.2 °C 29.98 in /  1015.1 hPa SW 1.1 mph /  1.8 km/h 3.0 mph /  4.8 km/h 76 % 0.00 in /  0 mm
03:15 59.6 °F /  15.3 °C 52.0 °F /  11.1 °C 29.98 in /  1015.1 hPa Calm   1.2 mph /  1.9 km/h 76 % 0.00 in /  0 mm
03:20 59.5 °F /  15.3 °C 51.9 °F /  11.1 °C 29.99 in /  1015.5 hPa SW 0.5 mph /  0.8 km/h 2.3 mph /  3.7 km/h 76 % 0.00 in /  0 mm
03:25 59.4 °F /  15.2 °C 52.2 °F /  11.2 °C 29.98 in /  1015.1 hPa SW 0.3 mph /  0.5 km/h 2.0 mph /  3.2 km/h 77 % 0.00 in /  0 mm
03:30 59.2 °F /  15.1 °C 52.0 °F /  11.1 °C 29.99 in /  1015.5 hPa SW 0.5 mph /  0.8 km/h 2.3 mph /  3.7 km/h 77 % 0.00 in /  0 mm
03:35 59.1 °F /  15.1 °C 51.9 °F /  11.1 °C 29.99 in /  1015.5 hPa SW 0.2 mph /  0.3 km/h 1.2 mph /  1.9 km/h 77 % 0.00 in /  0 mm
03:40 59.0 °F /  15 °C 51.8 °F /  11 °C 29.99 in /  1015.5 hPa WSW 0.4 mph /  0.6 km/h 3.5 mph /  5.6 km/h 77 % 0.00 in /  0 mm
03:45 58.9 °F /  14.9 °C 52.1 °F /  11.2 °C 29.99 in /  1015.5 hPa WSW 0.2 mph /  0.3 km/h 1.2 mph /  1.9 km/h 78 % 0.00 in /  0 mm
03:50 58.7 °F /  14.8 °C 51.9 °F /  11.1 °C 29.99 in /  1015.5 hPa SW 1.4 mph /  2.3 km/h 4.0 mph /  6.4 km/h 78 % 0.00 in /  0 mm
03:55 58.7 °F /  14.8 °C 52.2 °F /  11.2 °C 29.99 in /  1015.5 hPa WSW 1.6 mph /  2.6 km/h 3.5 mph /  5.6 km/h 79 % 0.00 in /  0 mm
04:00 58.6 °F /  14.8 °C 52.1 °F /  11.2 °C 29.99 in /  1015.5 hPa SW 0.5 mph /  0.8 km/h 2.3 mph /  3.7 km/h 79 % 0.00 in /  0 mm
04:05 58.5 °F /  14.7 °C 52.0 °F /  11.1 °C 29.99 in /  1015.5 hPa West 0.9 mph /  1.4 km/h 3.5 mph /  5.6 km/h 79 % 0.00 in /  0 mm
04:10 58.4 °F /  14.7 °C 51.9 °F /  11.1 °C 29.99 in /  1015.5 hPa WSW 1.7 mph /  2.7 km/h 3.5 mph /  5.6 km/h 79 % 0.00 in /  0 mm
04:15 58.4 °F /  14.7 °C 51.9 °F /  11.1 °C 29.99 in /  1015.5 hPa WSW 0.2 mph /  0.3 km/h 2.3 mph /  3.7 km/h 79 % 0.00 in /  0 mm
04:20 58.3 °F /  14.6 °C 52.2 °F /  11.2 °C 29.99 in /  1015.5 hPa SW 0.4 mph /  0.6 km/h 2.3 mph /  3.7 km/h 80 % 0.00 in /  0 mm
04:25 58.3 °F /  14.6 °C 52.5 °F /  11.4 °C 29.99 in /  1015.5 hPa SW 0.1 mph /  0.2 km/h 1.2 mph /  1.9 km/h 81 % 0.00 in /  0 mm
04:30 58.2 °F /  14.6 °C 52.4 °F /  11.3 °C 29.99 in /  1015.5 hPa SW 0.7 mph /  1.1 km/h 2.3 mph /  3.7 km/h 81 % 0.00 in /  0 mm
04:35 58.2 °F /  14.6 °C 52.7 °F /  11.5 °C 29.99 in /  1015.5 hPa WSW 1.6 mph /  2.6 km/h 4.0 mph /  6.4 km/h 82 % 0.00 in /  0 mm
04:40 58.1 °F /  14.5 °C 52.6 °F /  11.4 °C 29.99 in /  1015.5 hPa WSW 0.8 mph /  1.3 km/h 3.5 mph /  5.6 km/h 82 % 0.00 in /  0 mm
04:45 58.0 °F /  14.4 °C 52.2 °F /  11.2 °C 29.99 in /  1015.5 hPa WSW 0.5 mph /  0.8 km/h 1.2 mph /  1.9 km/h 81 % 0.00 in /  0 mm
04:50 57.9 °F /  14.4 °C 52.4 °F /  11.3 °C 29.99 in /  1015.5 hPa WSW 1.1 mph /  1.8 km/h 3.0 mph /  4.8 km/h 82 % 0.00 in /  0 mm
04:55 57.8 °F /  14.3 °C 52.3 °F /  11.3 °C 29.99 in /  1015.5 hPa WSW 0.7 mph /  1.1 km/h 3.5 mph /  5.6 km/h 82 % 0.00 in /  0 mm
04:56 57.7 °F /  14.3 °C 52.2 °F /  11.2 °C 29.99 in /  1015.5 hPa SW 1.7 mph /  2.7 km/h 4.6 mph /  7.4 km/h 82 % 0.00 in /  0 mm
05:01 57.7 °F /  14.3 °C 52.2 °F /  11.2 °C 29.99 in /  1015.5 hPa SSW 0.3 mph /  0.5 km/h 1.2 mph /  1.9 km/h 82 % 0.00 in /  0 mm
05:06 57.6 °F /  14.2 °C 52.1 °F /  11.2 °C 30.00 in /  1015.8 hPa SW 0.5 mph /  0.8 km/h 2.3 mph /  3.7 km/h 82 % 0.00 in /  0 mm
05:07 57.6 °F /  14.2 °C 52.1 °F /  11.2 °C 30.00 in /  1015.8 hPa Calm   1.2 mph /  1.9 km/h 82 % 0.00 in /  0 mm
05:12 57.5 °F /  14.2 °C 52.0 °F /  11.1 °C 30.00 in /  1015.8 hPa WSW 0.2 mph /  0.3 km/h 3.5 mph /  5.6 km/h 82 % 0.00 in /  0 mm
05:17 57.5 °F /  14.2 °C 52.4 °F /  11.3 °C 30.00 in /  1015.8 hPa WSW 0.2 mph /  0.3 km/h 2.3 mph /  3.7 km/h 83 % 0.00 in /  0 mm
05:22 57.4 °F /  14.1 °C 52.3 °F /  11.3 °C 30.00 in /  1015.8 hPa SW 1.8 mph /  2.9 km/h 4.0 mph /  6.4 km/h 83 % 0.00 in /  0 mm
05:27 57.4 °F /  14.1 °C 52.3 °F /  11.3 °C 30.00 in /  1015.8 hPa SW 1.3 mph /  2.1 km/h 4.6 mph /  7.4 km/h 83 % 0.00 in /  0 mm
05:32 57.3 °F /  14.1 °C 52.2 °F /  11.2 °C 30.00 in /  1015.8 hPa SW 1.3 mph /  2.1 km/h 2.3 mph /  3.7 km/h 83 % 0.00 in /  0 mm
05:37 57.3 °F /  14.1 °C 52.2 °F /  11.2 °C 30.00 in /  1015.8 hPa SW 0.4 mph /  0.6 km/h 1.2 mph /  1.9 km/h 83 % 0.00 in /  0 mm
05:42 57.2 °F /  14 °C 52.1 °F /  11.2 °C 30.00 in /  1015.8 hPa SW 0.2 mph /  0.3 km/h 3.5 mph /  5.6 km/h 83 % 0.00 in /  0 mm
05:47 57.2 °F /  14 °C 52.4 °F /  11.3 °C 30.01 in /  1016.1 hPa SW 0.1 mph /  0.2 km/h 2.3 mph /  3.7 km/h 84 % 0.00 in /  0 mm
05:52 57.2 °F /  14 °C 52.4 °F /  11.3 °C 30.01 in /  1016.1 hPa SW 1.0 mph /  1.6 km/h 3.0 mph /  4.8 km/h 84 % 0.00 in /  0 mm
05:57 57.1 °F /  13.9 °C 52.3 °F /  11.3 °C 30.01 in /  1016.1 hPa WSW 1.5 mph /  2.4 km/h 3.5 mph /  5.6 km/h 84 % 0.00 in /  0 mm
06:02 57.1 °F /  13.9 °C 52.3 °F /  11.3 °C 30.01 in /  1016.1 hPa Calm   1.2 mph /  1.9 km/h 84 % 0.00 in /  0 mm
06:07 57.1 °F /  13.9 °C 52.3 °F /  11.3 °C 30.01 in /  1016.1 hPa SW 0.7 mph /  1.1 km/h 2.3 mph /  3.7 km/h 84 % 0.00 in /  0 mm
06:12 57.0 °F /  13.9 °C 52.2 °F /  11.2 °C 30.00 in /  1015.8 hPa SW 0.5 mph /  0.8 km/h 1.2 mph /  1.9 km/h 84 % 0.00 in /  0 mm
06:17 57.0 °F /  13.9 °C 52.5 °F /  11.4 °C 30.01 in /  1016.1 hPa SW 1.4 mph /  2.3 km/h 2.3 mph /  3.7 km/h 85 % 0.00 in /  0 mm
06:22 56.9 °F /  13.8 °C 52.4 °F /  11.3 °C 30.00 in /  1015.8 hPa SSW 0.1 mph /  0.2 km/h 2.0 mph /  3.2 km/h 85 % 0.00 in /  0 mm
06:27 56.9 °F /  13.8 °C 52.4 °F /  11.3 °C 30.00 in /  1015.8 hPa SSW 0.2 mph /  0.3 km/h 1.2 mph /  1.9 km/h 85 % 0.00 in /  0 mm
06:32 56.8 °F /  13.8 °C 52.3 °F /  11.3 °C 30.00 in /  1015.8 hPa SSW 0.3 mph /  0.5 km/h 1.2 mph /  1.9 km/h 85 % 0.00 in /  0 mm
06:37 56.7 °F /  13.7 °C 52.2 °F /  11.2 °C 30.01 in /  1016.1 hPa SSW 1.0 mph /  1.6 km/h 2.3 mph /  3.7 km/h 85 % 0.00 in /  0 mm
06:42 56.6 °F /  13.7 °C 52.1 °F /  11.2 °C 30.01 in /  1016.1 hPa SSW 0.5 mph /  0.8 km/h 3.0 mph /  4.8 km/h 85 % 0.00 in /  0 mm
06:47 56.6 °F /  13.7 °C 52.5 °F /  11.4 °C 30.02 in /  1016.5 hPa SSW 0.5 mph /  0.8 km/h 1.2 mph /  1.9 km/h 86 % 0.00 in /  0 mm
06:52 56.5 °F /  13.6 °C 52.4 °F /  11.3 °C 30.02 in /  1016.5 hPa SSW 0.2 mph /  0.3 km/h 1.2 mph /  1.9 km/h 86 % 0.00 in /  0 mm
06:57 56.4 °F /  13.6 °C 52.3 °F /  11.3 °C 30.02 in /  1016.5 hPa SSE 1.7 mph /  2.7 km/h 4.6 mph /  7.4 km/h 86 % 0.00 in /  0 mm
07:03 56.4 °F /  13.6 °C 52.6 °F /  11.4 °C 30.02 in /  1016.5 hPa SSW 1.6 mph /  2.6 km/h 3.5 mph /  5.6 km/h 87 % 0.00 in /  0 mm
07:08 56.3 °F /  13.5 °C 52.5 °F /  11.4 °C 30.02 in /  1016.5 hPa SSW 1.8 mph /  2.9 km/h 2.3 mph /  3.7 km/h 87 % 0.00 in /  0 mm
07:13 56.3 °F /  13.5 °C 52.5 °F /  11.4 °C 30.02 in /  1016.5 hPa SW 1.1 mph /  1.8 km/h 3.5 mph /  5.6 km/h 87 % 0.00 in /  0 mm
07:18 56.3 °F /  13.5 °C 52.8 °F /  11.6 °C 30.02 in /  1016.5 hPa SW 2.3 mph /  3.7 km/h 3.5 mph /  5.6 km/h 88 % 0.00 in /  0 mm
07:23 56.3 °F /  13.5 °C 52.8 °F /  11.6 °C 30.02 in /  1016.5 hPa WSW 1.9 mph /  3.1 km/h 3.5 mph /  5.6 km/h 88 % 0.00 in /  0 mm
07:28 56.4 °F /  13.6 °C 52.9 °F /  11.6 °C 30.02 in /  1016.5 hPa Calm   1.2 mph /  1.9 km/h 88 % 0.00 in /  0 mm
07:33 56.5 °F /  13.6 °C 53.3 °F /  11.8 °C 30.03 in /  1016.8 hPa SW 1.2 mph /  1.9 km/h 2.3 mph /  3.7 km/h 89 % 0.00 in /  0 mm
07:38 56.6 °F /  13.7 °C 53.4 °F /  11.9 °C 30.03 in /  1016.8 hPa SW 2.3 mph /  3.7 km/h 3.5 mph /  5.6 km/h 89 % 0.00 in /  0 mm
07:43 56.8 °F /  13.8 °C 53.6 °F /  12 °C 30.03 in /  1016.8 hPa SW 3.0 mph /  4.8 km/h 4.6 mph /  7.4 km/h 89 % 0.00 in /  0 mm
07:48 57.0 °F /  13.9 °C 53.8 °F /  12.1 °C 30.03 in /  1016.8 hPa WSW 0.7 mph /  1.1 km/h 4.6 mph /  7.4 km/h 89 % 0.00 in /  0 mm
07:53 57.2 °F /  14 °C 53.7 °F /  12.1 °C 30.03 in /  1016.8 hPa SW 0.5 mph /  0.8 km/h 2.3 mph /  3.7 km/h 88 % 0.00 in /  0 mm
07:59 57.5 °F /  14.2 °C 54.3 °F /  12.4 °C 30.03 in /  1016.8 hPa WSW 2.8 mph /  4.5 km/h 6.0 mph /  9.7 km/h 89 % 0.00 in /  0 mm
08:04 57.8 °F /  14.3 °C 54.3 °F /  12.4 °C 30.03 in /  1016.8 hPa WSW 2.4 mph /  3.9 km/h 4.6 mph /  7.4 km/h 88 % 0.00 in /  0 mm
08:09 58.2 °F /  14.6 °C 54.7 °F /  12.6 °C 30.03 in /  1016.8 hPa WNW 2.3 mph /  3.7 km/h 5.0 mph /  8 km/h 88 % 0.00 in /  0 mm
08:14 58.6 °F /  14.8 °C 54.7 °F /  12.6 °C 30.03 in /  1016.8 hPa WSW 2.3 mph /  3.7 km/h 3.5 mph /  5.6 km/h 87 % 0.00 in /  0 mm
08:19 59.0 °F /  15 °C 54.8 °F /  12.7 °C 30.03 in /  1016.8 hPa WSW 3.1 mph /  5 km/h 4.6 mph /  7.4 km/h 86 % 0.00 in /  0 mm
08:24 59.3 °F /  15.2 °C 54.8 °F /  12.7 °C 30.03 in /  1016.8 hPa SSW 4.6 mph /  7.4 km/h 8.1 mph /  13 km/h 85 % 0.00 in /  0 mm
08:29 59.7 °F /  15.4 °C 54.9 °F /  12.7 °C 30.03 in /  1016.8 hPa SSW 2.7 mph /  4.3 km/h 5.0 mph /  8 km/h 84 % 0.00 in /  0 mm
08:34 60.0 °F /  15.6 °C 54.8 °F /  12.7 °C 30.03 in /  1016.8 hPa SW 1.7 mph /  2.7 km/h 3.5 mph /  5.6 km/h 83 % 0.00 in /  0 mm
08:39 60.4 °F /  15.8 °C 54.9 °F /  12.7 °C 30.03 in /  1016.8 hPa SSW 3.2 mph /  5.1 km/h 4.6 mph /  7.4 km/h 82 % 0.00 in /  0 mm
08:44 60.7 °F /  15.9 °C 54.8 °F /  12.7 °C 30.03 in /  1016.8 hPa WSW 2.3 mph /  3.7 km/h 4.6 mph /  7.4 km/h 81 % 0.00 in /  0 mm
08:49 61.1 °F /  16.2 °C 55.2 °F /  12.9 °C 30.03 in /  1016.8 hPa SSW 2.9 mph /  4.7 km/h 5.8 mph /  9.3 km/h 81 % 0.00 in /  0 mm
08:54 61.4 °F /  16.3 °C 55.5 °F /  13.1 °C 30.03 in /  1016.8 hPa WSW 4.5 mph /  7.2 km/h 6.9 mph /  11.1 km/h 81 % 0.00 in /  0 mm
09:00 61.8 °F /  16.6 °C 55.6 °F /  13.1 °C 30.03 in /  1016.8 hPa WSW 4.0 mph /  6.4 km/h 8.0 mph /  12.9 km/h 80 % 0.00 in /  0 mm
09:05 62.2 °F /  16.8 °C 55.3 °F /  12.9 °C 30.03 in /  1016.8 hPa West 3.2 mph /  5.1 km/h 9.0 mph /  14.5 km/h 78 % 0.00 in /  0 mm
09:10 62.5 °F /  16.9 °C 55.5 °F /  13.1 °C 30.04 in /  1017.2 hPa West 2.1 mph /  3.4 km/h 5.8 mph /  9.3 km/h 78 % 0.00 in /  0 mm
09:15 62.8 °F /  17.1 °C 55.1 °F /  12.8 °C 30.04 in /  1017.2 hPa WSW 5.8 mph /  9.3 km/h 11.5 mph /  18.5 km/h 76 % 0.00 in /  0 mm
09:20 63.0 °F /  17.2 °C 55.3 °F /  12.9 °C 30.04 in /  1017.2 hPa SSW 3.6 mph /  5.8 km/h 6.0 mph /  9.7 km/h 76 % 0.00 in /  0 mm
09:25 63.2 °F /  17.3 °C 54.8 °F /  12.7 °C 30.04 in /  1017.2 hPa WSW 4.8 mph /  7.7 km/h 5.8 mph /  9.3 km/h 74 % 0.00 in /  0 mm
09:31 63.4 °F /  17.4 °C 55.3 °F /  12.9 °C 30.04 in /  1017.2 hPa West 5.0 mph /  8 km/h 10.0 mph /  16.1 km/h 75 % 0.00 in /  0 mm
09:36 63.6 °F /  17.6 °C 55.2 °F /  12.9 °C 30.05 in /  1017.5 hPa West 2.0 mph /  3.2 km/h 9.0 mph /  14.5 km/h 74 % 0.00 in /  0 mm
09:41 63.9 °F /  17.7 °C 55.4 °F /  13 °C 30.05 in /  1017.5 hPa West 1.0 mph /  1.6 km/h 7.0 mph /  11.3 km/h 74 % 0.00 in /  0 mm
09:46 64.3 °F /  17.9 °C 55.9 °F /  13.3 °C 30.05 in /  1017.5 hPa West 1.0 mph /  1.6 km/h 9.0 mph /  14.5 km/h 74 % 0.00 in /  0 mm
09:51 64.8 °F /  18.2 °C 56.0 °F /  13.3 °C 30.05 in /  1017.5 hPa West 3.0 mph /  4.8 km/h 9.0 mph /  14.5 km/h 73 % 0.00 in /  0 mm
09:56 65.3 °F /  18.5 °C 55.7 °F /  13.2 °C 30.05 in /  1017.5 hPa WSW 5.0 mph /  8 km/h 8.0 mph /  12.9 km/h 71 % 0.00 in /  0 mm
10:01 65.8 °F /  18.8 °C 55.7 °F /  13.2 °C 30.05 in /  1017.5 hPa SW 1.1 mph /  1.8 km/h 11.5 mph /  18.5 km/h 70 % 0.00 in /  0 mm
10:06 66.1 °F /  18.9 °C 55.2 °F /  12.9 °C 30.05 in /  1017.5 hPa WSW 3.1 mph /  5 km/h 8.1 mph /  13 km/h 68 % 0.00 in /  0 mm
10:11 66.2 °F /  19 °C 55.7 °F /  13.2 °C 30.04 in /  1017.2 hPa SW 2.9 mph /  4.7 km/h 4.6 mph /  7.4 km/h 69 % 0.00 in /  0 mm
10:16 66.3 °F /  19.1 °C 55.4 °F /  13 °C 30.04 in /  1017.2 hPa WNW 5.6 mph /  9 km/h 10.4 mph /  16.7 km/h 68 % 0.00 in /  0 mm
10:21 66.3 °F /  19.1 °C 55.0 °F /  12.8 °C 30.04 in /  1017.2 hPa WSW 3.0 mph /  4.8 km/h 5.8 mph /  9.3 km/h 67 % 0.00 in /  0 mm
10:26 66.3 °F /  19.1 °C 55.0 °F /  12.8 °C 30.04 in /  1017.2 hPa NW 5.0 mph /  8 km/h 6.9 mph /  11.1 km/h 67 % 0.00 in /  0 mm
10:31 66.4 °F /  19.1 °C 55.1 °F /  12.8 °C 30.04 in /  1017.2 hPa SSW 2.9 mph /  4.7 km/h 5.8 mph /  9.3 km/h 67 % 0.00 in /  0 mm
10:36 66.4 °F /  19.1 °C 55.9 °F /  13.3 °C 30.04 in /  1017.2 hPa WSW 5.3 mph /  8.5 km/h 9.2 mph /  14.8 km/h 69 % 0.00 in /  0 mm
10:41 66.5 °F /  19.2 °C 55.2 °F /  12.9 °C 30.04 in /  1017.2 hPa WSW 3.0 mph /  4.8 km/h 8.1 mph /  13 km/h 67 % 0.00 in /  0 mm
10:46 66.6 °F /  19.2 °C 55.7 °F /  13.2 °C 30.04 in /  1017.2 hPa West 1.6 mph /  2.6 km/h 3.0 mph /  4.8 km/h 68 % 0.00 in /  0 mm
10:51 66.8 °F /  19.3 °C 55.5 °F /  13.1 °C 30.04 in /  1017.2 hPa West 4.5 mph /  7.2 km/h 8.1 mph /  13 km/h 67 % 0.00 in /  0 mm
10:56 67.1 °F /  19.5 °C 55.4 °F /  13 °C 30.04 in /  1017.2 hPa SSW 3.4 mph /  5.5 km/h 6.0 mph /  9.7 km/h 66 % 0.00 in /  0 mm
10:59 67.2 °F /  19.6 °C 55.9 °F /  13.3 °C 30.04 in /  1017.2 hPa WSW 2.6 mph /  4.2 km/h 3.5 mph /  5.6 km/h 67 % 0.00 in /  0 mm
11:04 67.7 °F /  19.8 °C 56.3 °F /  13.5 °C 30.04 in /  1017.2 hPa WSW 3.4 mph /  5.5 km/h 6.0 mph /  9.7 km/h 67 % 0.00 in /  0 mm
11:09 68.4 °F /  20.2 °C 56.6 °F /  13.7 °C 30.04 in /  1017.2 hPa SSW 5.0 mph /  8 km/h 6.9 mph /  11.1 km/h 66 % 0.00 in /  0 mm
11:14 69.3 °F /  20.7 °C 56.6 °F /  13.7 °C 30.04 in /  1017.2 hPa West 5.1 mph /  8.2 km/h 9.2 mph /  14.8 km/h 64 % 0.00 in /  0 mm
11:19 70.1 °F /  21.2 °C 56.5 °F /  13.6 °C 30.04 in /  1017.2 hPa WSW 3.7 mph /  6 km/h 9.2 mph /  14.8 km/h 62 % 0.00 in /  0 mm
11:24 70.8 °F /  21.6 °C 56.7 °F /  13.7 °C 30.04 in /  1017.2 hPa WSW 4.1 mph /  6.6 km/h 6.0 mph /  9.7 km/h 61 % 0.00 in /  0 mm
11:29 71.7 °F /  22.1 °C 58.4 °F /  14.7 °C 30.04 in /  1017.2 hPa WNW 4.4 mph /  7.1 km/h 8.0 mph /  12.9 km/h 63 % 0.00 in /  0 mm
11:34 72.6 °F /  22.6 °C 59.3 °F /  15.2 °C 30.03 in /  1016.8 hPa WSW 1.6 mph /  2.6 km/h 5.8 mph /  9.3 km/h 63 % 0.00 in /  0 mm
11:39 73.4 °F /  23 °C 59.6 °F /  15.3 °C 30.03 in /  1016.8 hPa NW 2.1 mph /  3.4 km/h 9.0 mph /  14.5 km/h 62 % 0.00 in /  0 mm
11:44 74.0 °F /  23.3 °C 58.8 °F /  14.9 °C 30.04 in /  1017.2 hPa WNW 0.7 mph /  1.1 km/h 4.0 mph /  6.4 km/h 59 % 0.00 in /  0 mm
11:49 74.4 °F /  23.6 °C 56.7 °F /  13.7 °C 30.04 in /  1017.2 hPa WSW 5.1 mph /  8.2 km/h 8.1 mph /  13 km/h 54 % 0.00 in /  0 mm
11:54 74.7 °F /  23.7 °C 56.4 °F /  13.6 °C 30.03 in /  1016.8 hPa SW 4.6 mph /  7.4 km/h 5.8 mph /  9.3 km/h 53 % 0.00 in /  0 mm
11:59 75.1 °F /  23.9 °C 56.8 °F /  13.8 °C 30.04 in /  1017.2 hPa WSW 1.8 mph /  2.9 km/h 4.6 mph /  7.4 km/h 53 % 0.00 in /  0 mm
12:04 75.3 °F /  24.1 °C 56.5 °F /  13.6 °C 30.03 in /  1016.8 hPa WSW 2.6 mph /  4.2 km/h 9.2 mph /  14.8 km/h 52 % 0.00 in /  0 mm
12:09 75.6 °F /  24.2 °C 58.8 °F /  14.9 °C 30.03 in /  1016.8 hPa SW 2.4 mph /  3.9 km/h 4.6 mph /  7.4 km/h 56 % 0.00 in /  0 mm
12:14 75.9 °F /  24.4 °C 59.1 °F /  15.1 °C 30.04 in /  1017.2 hPa West 3.4 mph /  5.5 km/h 7.0 mph /  11.3 km/h 56 % 0.00 in /  0 mm
12:20 76.0 °F /  24.4 °C 57.6 °F /  14.2 °C 30.04 in /  1017.2 hPa WSW 2.5 mph /  4 km/h 5.8 mph /  9.3 km/h 53 % 0.00 in /  0 mm
12:25 76.3 °F /  24.6 °C 58.4 °F /  14.7 °C 30.03 in /  1016.8 hPa West 2.5 mph /  4 km/h 8.1 mph /  13 km/h 54 % 0.00 in /  0 mm
12:30 76.4 °F /  24.7 °C 56.9 °F /  13.8 °C 30.04 in /  1017.2 hPa West 1.1 mph /  1.8 km/h 3.5 mph /  5.6 km/h 51 % 0.00 in /  0 mm
12:35 76.6 °F /  24.8 °C 57.1 °F /  13.9 °C 30.04 in /  1017.2 hPa SW 2.7 mph /  4.3 km/h 6.0 mph /  9.7 km/h 51 % 0.00 in /  0 mm
12:40 76.7 °F /  24.8 °C 57.2 °F /  14 °C 30.04 in /  1017.2 hPa West 2.4 mph /  3.9 km/h 5.0 mph /  8 km/h 51 % 0.00 in /  0 mm
12:45 76.7 °F /  24.8 °C 55.5 °F /  13.1 °C 30.04 in /  1017.2 hPa SW 5.5 mph /  8.9 km/h 10.4 mph /  16.7 km/h 48 % 0.00 in /  0 mm
12:50 76.7 °F /  24.8 °C 56.7 °F /  13.7 °C 30.03 in /  1016.8 hPa SW 2.3 mph /  3.7 km/h 5.8 mph /  9.3 km/h 50 % 0.00 in /  0 mm
12:55 76.7 °F /  24.8 °C 56.1 °F /  13.4 °C 30.04 in /  1017.2 hPa NW 1.8 mph /  2.9 km/h 10.4 mph /  16.7 km/h 49 % 0.00 in /  0 mm
13:00 76.8 °F /  24.9 °C 56.2 °F /  13.4 °C 30.04 in /  1017.2 hPa SSW 2.6 mph /  4.2 km/h 5.8 mph /  9.3 km/h 49 % 0.00 in /  0 mm
13:05 76.7 °F /  24.8 °C 56.1 °F /  13.4 °C 30.04 in /  1017.2 hPa WNW 1.2 mph /  1.9 km/h 8.1 mph /  13 km/h 49 % 0.00 in /  0 mm
13:10 76.7 °F /  24.8 °C 57.2 °F /  14 °C 30.04 in /  1017.2 hPa WSW 5.4 mph /  8.7 km/h 8.0 mph /  12.9 km/h 51 % 0.00 in /  0 mm
13:15 76.6 °F /  24.8 °C 56.0 °F /  13.3 °C 30.03 in /  1016.8 hPa WSW 0.6 mph /  1 km/h 3.5 mph /  5.6 km/h 49 % 0.00 in /  0 mm
13:20 76.7 °F /  24.8 °C 56.7 °F /  13.7 °C 30.03 in /  1016.8 hPa SW 3.7 mph /  6 km/h 5.8 mph /  9.3 km/h 50 % 0.00 in /  0 mm
13:25 76.6 °F /  24.8 °C 55.4 °F /  13 °C 30.03 in /  1016.8 hPa SSW 3.2 mph /  5.1 km/h 6.0 mph /  9.7 km/h 48 % 0.00 in /  0 mm
13:30 76.4 °F /  24.7 °C 55.8 °F /  13.2 °C 30.03 in /  1016.8 hPa WSW 4.1 mph /  6.6 km/h 6.9 mph /  11.1 km/h 49 % 0.00 in /  0 mm
13:36 76.5 °F /  24.7 °C 56.5 °F /  13.6 °C 30.03 in /  1016.8 hPa SW 3.5 mph /  5.6 km/h 8.1 mph /  13 km/h 50 % 0.00 in /  0 mm
13:40 76.8 °F /  24.9 °C 58.9 °F /  14.9 °C 30.03 in /  1016.8 hPa West 2.0 mph /  3.2 km/h 5.0 mph /  8 km/h 54 % 0.00 in /  0 mm
13:46 77.0 °F /  25 °C 56.9 °F /  13.8 °C 30.03 in /  1016.8 hPa West 1.0 mph /  1.6 km/h 12.0 mph /  19.3 km/h 50 % 0.00 in /  0 mm
13:51 77.2 °F /  25.1 °C 57.1 °F /  13.9 °C 30.03 in /  1016.8 hPa West 5.0 mph /  8 km/h 12.0 mph /  19.3 km/h 50 % 0.00 in /  0 mm
13:56 77.2 °F /  25.1 °C 57.7 °F /  14.3 °C 30.04 in /  1017.2 hPa WNW 2.0 mph /  3.2 km/h 9.0 mph /  14.5 km/h 51 % 0.00 in /  0 mm
14:01 77.2 °F /  25.1 °C 56.0 °F /  13.3 °C 30.03 in /  1016.8 hPa WSW 2.6 mph /  4.2 km/h 5.8 mph /  9.3 km/h 48 % 0.00 in /  0 mm
14:06 77.3 °F /  25.2 °C 56.1 °F /  13.4 °C 30.03 in /  1016.8 hPa WNW 4.6 mph /  7.4 km/h 9.2 mph /  14.8 km/h 48 % 0.00 in /  0 mm
14:11 77.4 °F /  25.2 °C 57.3 °F /  14.1 °C 30.03 in /  1016.8 hPa NW 4.4 mph /  7.1 km/h 8.1 mph /  13 km/h 50 % 0.00 in /  0 mm
14:16 77.5 °F /  25.3 °C 58.5 °F /  14.7 °C 30.03 in /  1016.8 hPa WNW 1.2 mph /  1.9 km/h 4.0 mph /  6.4 km/h 52 % 0.00 in /  0 mm
14:21 77.7 °F /  25.4 °C 58.1 °F /  14.5 °C 30.03 in /  1016.8 hPa WSW 3.8 mph /  6.1 km/h 5.8 mph /  9.3 km/h 51 % 0.00 in /  0 mm
14:26 77.8 °F /  25.4 °C 57.7 °F /  14.3 °C 30.03 in /  1016.8 hPa WSW 2.7 mph /  4.3 km/h 8.1 mph /  13 km/h 50 % 0.00 in /  0 mm
14:28 77.8 °F /  25.4 °C 56.0 °F /  13.3 °C 30.03 in /  1016.8 hPa WSW 6.2 mph /  10 km/h 11.5 mph /  18.5 km/h 47 % 0.00 in /  0 mm
14:33 77.6 °F /  25.3 °C 55.2 °F /  12.9 °C 30.04 in /  1017.2 hPa SW 3.2 mph /  5.1 km/h 9.2 mph /  14.8 km/h 46 % 0.00 in /  0 mm
14:38 77.3 °F /  25.2 °C 56.6 °F /  13.7 °C 30.03 in /  1016.8 hPa NW 2.4 mph /  3.9 km/h 6.9 mph /  11.1 km/h 49 % 0.00 in /  0 mm
14:43 76.9 °F /  24.9 °C 57.9 °F /  14.4 °C 30.03 in /  1016.8 hPa WNW 2.3 mph /  3.7 km/h 3.5 mph /  5.6 km/h 52 % 0.00 in /  0 mm
14:48 76.4 °F /  24.7 °C 56.4 °F /  13.6 °C 30.03 in /  1016.8 hPa WNW 2.5 mph /  4 km/h 5.0 mph /  8 km/h 50 % 0.00 in /  0 mm
14:53 75.9 °F /  24.4 °C 54.8 °F /  12.7 °C 30.03 in /  1016.8 hPa WNW 2.5 mph /  4 km/h 6.0 mph /  9.7 km/h 48 % 0.00 in /  0 mm
14:58 75.5 °F /  24.2 °C 55.6 °F /  13.1 °C 30.03 in /  1016.8 hPa West 4.9 mph /  7.9 km/h 6.9 mph /  11.1 km/h 50 % 0.00 in /  0 mm
15:03 75.1 °F /  23.9 °C 55.2 °F /  12.9 °C 30.03 in /  1016.8 hPa NW 2.8 mph /  4.5 km/h 6.9 mph /  11.1 km/h 50 % 0.00 in /  0 mm
15:08 74.8 °F /  23.8 °C 56.0 °F /  13.3 °C 30.03 in /  1016.8 hPa NW 4.4 mph /  7.1 km/h 7.0 mph /  11.3 km/h 52 % 0.00 in /  0 mm
15:13 74.8 °F /  23.8 °C 58.5 °F /  14.7 °C 30.03 in /  1016.8 hPa WSW 1.4 mph /  2.3 km/h 5.8 mph /  9.3 km/h 57 % 0.00 in /  0 mm
15:18 74.7 °F /  23.7 °C 56.9 °F /  13.8 °C 30.03 in /  1016.8 hPa West 2.3 mph /  3.7 km/h 5.8 mph /  9.3 km/h 54 % 0.00 in /  0 mm
15:23 74.7 °F /  23.7 °C 56.4 °F /  13.6 °C 30.03 in /  1016.8 hPa WSW 3.4 mph /  5.5 km/h 6.0 mph /  9.7 km/h 53 % 0.00 in /  0 mm
15:28 74.6 °F /  23.7 °C 56.3 °F /  13.5 °C 30.03 in /  1016.8 hPa NW 2.3 mph /  3.7 km/h 4.0 mph /  6.4 km/h 53 % 0.00 in /  0 mm
15:33 74.5 °F /  23.6 °C 55.7 °F /  13.2 °C 30.03 in /  1016.8 hPa West 4.2 mph /  6.8 km/h 11.5 mph /  18.5 km/h 52 % 0.00 in /  0 mm
15:35 74.5 °F /  23.6 °C 56.2 °F /  13.4 °C 30.03 in /  1016.8 hPa WSW 3.3 mph /  5.3 km/h 11.5 mph /  18.5 km/h 53 % 0.00 in /  0 mm
15:40 74.6 °F /  23.7 °C 56.9 °F /  13.8 °C 30.03 in /  1016.8 hPa NE 4.0 mph /  6.4 km/h 8.1 mph /  13 km/h 54 % 0.00 in /  0 mm
15:45 74.8 °F /  23.8 °C 56.0 °F /  13.3 °C 30.04 in /  1017.2 hPa NW 3.3 mph /  5.3 km/h 6.9 mph /  11.1 km/h 52 % 0.00 in /  0 mm
15:50 74.9 °F /  23.8 °C 57.6 °F /  14.2 °C 30.03 in /  1016.8 hPa SW 5.2 mph /  8.4 km/h 9.2 mph /  14.8 km/h 55 % 0.00 in /  0 mm
15:55 75.1 °F /  23.9 °C 56.8 °F /  13.8 °C 30.04 in /  1017.2 hPa WSW 5.3 mph /  8.5 km/h 8.0 mph /  12.9 km/h 53 % 0.00 in /  0 mm
16:00 75.3 °F /  24.1 °C 56.5 °F /  13.6 °C 30.04 in /  1017.2 hPa West 1.1 mph /  1.8 km/h 4.6 mph /  7.4 km/h 52 % 0.00 in /  0 mm
16:05 75.4 °F /  24.1 °C 56.0 °F /  13.3 °C 30.04 in /  1017.2 hPa NW 1.5 mph /  2.4 km/h 3.5 mph /  5.6 km/h 51 % 0.00 in /  0 mm
16:10 75.5 °F /  24.2 °C 56.1 °F /  13.4 °C 30.04 in /  1017.2 hPa WNW 3.3 mph /  5.3 km/h 9.2 mph /  14.8 km/h 51 % 0.00 in /  0 mm
16:15 75.6 °F /  24.2 °C 55.6 °F /  13.1 °C 30.04 in /  1017.2 hPa NW 2.8 mph /  4.5 km/h 5.8 mph /  9.3 km/h 50 % 0.00 in /  0 mm
16:20 75.6 °F /  24.2 °C 56.7 °F /  13.7 °C 30.03 in /  1016.8 hPa SW 2.7 mph /  4.3 km/h 6.0 mph /  9.7 km/h 52 % 0.00 in /  0 mm
16:25 75.6 °F /  24.2 °C 55.6 °F /  13.1 °C 30.04 in /  1017.2 hPa WSW 4.6 mph /  7.4 km/h 8.1 mph /  13 km/h 50 % 0.00 in /  0 mm
16:30 75.7 °F /  24.3 °C 55.7 °F /  13.2 °C 30.03 in /  1016.8 hPa WSW 3.6 mph /  5.8 km/h 4.6 mph /  7.4 km/h 50 % 0.00 in /  0 mm
16:35 75.7 °F /  24.3 °C 56.8 °F /  13.8 °C 30.03 in /  1016.8 hPa SW 1.7 mph /  2.7 km/h 3.5 mph /  5.6 km/h 52 % 0.00 in /  0 mm
16:40 75.7 °F /  24.3 °C 56.3 °F /  13.5 °C 30.04 in /  1017.2 hPa South 2.6 mph /  4.2 km/h 4.0 mph /  6.4 km/h 51 % 0.00 in /  0 mm
16:45 75.7 °F /  24.3 °C 55.7 °F /  13.2 °C 30.04 in /  1017.2 hPa SW 3.0 mph /  4.8 km/h 8.0 mph /  12.9 km/h 50 % 0.00 in /  0 mm
16:50 75.6 °F /  24.2 °C 55.0 °F /  12.8 °C 30.04 in /  1017.2 hPa WSW 3.0 mph /  4.8 km/h 8.0 mph /  12.9 km/h 49 % 0.00 in /  0 mm
16:55 75.4 °F /  24.1 °C 54.3 °F /  12.4 °C 30.04 in /  1017.2 hPa West 3.0 mph /  4.8 km/h 6.0 mph /  9.7 km/h 48 % 0.00 in /  0 mm
17:01 75.2 °F /  24 °C 53.6 °F /  12 °C 30.03 in /  1016.8 hPa WSW 5.1 mph /  8.2 km/h 5.8 mph /  9.3 km/h 47 % 0.00 in /  0 mm
17:06 74.9 °F /  23.8 °C 56.1 °F /  13.4 °C 30.03 in /  1016.8 hPa NW 1.1 mph /  1.8 km/h 2.3 mph /  3.7 km/h 52 % 0.00 in /  0 mm
17:11 74.7 °F /  23.7 °C 55.4 °F /  13 °C 30.03 in /  1016.8 hPa SW 2.0 mph /  3.2 km/h 8.0 mph /  12.9 km/h 51 % 0.00 in /  0 mm
17:16 74.5 °F /  23.6 °C 53.5 °F /  11.9 °C 30.03 in /  1016.8 hPa West 3.8 mph /  6.1 km/h 6.0 mph /  9.7 km/h 48 % 0.00 in /  0 mm
17:21 74.2 °F /  23.4 °C 53.8 °F /  12.1 °C 30.03 in /  1016.8 hPa West 4.6 mph /  7.4 km/h 10.4 mph /  16.7 km/h 49 % 0.00 in /  0 mm
17:26 73.9 °F /  23.3 °C 53.0 °F /  11.7 °C 30.03 in /  1016.8 hPa WNW 5.0 mph /  8 km/h 9.2 mph /  14.8 km/h 48 % 0.00 in /  0 mm
17:31 73.5 °F /  23.1 °C 52.6 °F /  11.4 °C 30.04 in /  1017.2 hPa West 3.0 mph /  4.8 km/h 5.8 mph /  9.3 km/h 48 % 0.00 in /  0 mm
17:36 73.1 °F /  22.8 °C 52.2 °F /  11.2 °C 30.04 in /  1017.2 hPa SW 4.2 mph /  6.8 km/h 6.9 mph /  11.1 km/h 48 % 0.00 in /  0 mm
17:41 72.7 °F /  22.6 °C 52.4 °F /  11.3 °C 30.04 in /  1017.2 hPa WNW 4.5 mph /  7.2 km/h 6.9 mph /  11.1 km/h 49 % 0.00 in /  0 mm
17:46 72.3 °F /  22.4 °C 53.2 °F /  11.8 °C 30.04 in /  1017.2 hPa WSW 2.3 mph /  3.7 km/h 8.1 mph /  13 km/h 51 % 0.00 in /  0 mm
17:51 71.9 °F /  22.2 °C 52.8 °F /  11.6 °C 30.05 in /  1017.5 hPa SSW 3.0 mph /  4.8 km/h 5.8 mph /  9.3 km/h 51 % 0.00 in /  0 mm
17:56 71.6 °F /  22 °C 53.0 °F /  11.7 °C 30.04 in /  1017.2 hPa West 1.8 mph /  2.9 km/h 6.9 mph /  11.1 km/h 52 % 0.00 in /  0 mm
18:01 71.3 °F /  21.8 °C 53.8 °F /  12.1 °C 30.04 in /  1017.2 hPa WNW 1.7 mph /  2.7 km/h 5.8 mph /  9.3 km/h 54 % 0.00 in /  0 mm
18:06 71.0 °F /  21.7 °C 53.5 °F /  11.9 °C 30.05 in /  1017.5 hPa WSW 4.6 mph /  7.4 km/h 10.0 mph /  16.1 km/h 54 % 0.00 in /  0 mm
18:09 70.8 °F /  21.6 °C 53.3 °F /  11.8 °C 30.05 in /  1017.5 hPa WNW 3.7 mph /  6 km/h 6.0 mph /  9.7 km/h 54 % 0.00 in /  0 mm
18:14 70.4 °F /  21.3 °C 52.4 °F /  11.3 °C 30.05 in /  1017.5 hPa WNW 1.3 mph /  2.1 km/h 4.0 mph /  6.4 km/h 53 % 0.00 in /  0 mm
18:19 70.2 °F /  21.2 °C 53.3 °F /  11.8 °C 30.05 in /  1017.5 hPa SSW 1.3 mph /  2.1 km/h 3.5 mph /  5.6 km/h 55 % 0.00 in /  0 mm
18:24 70.0 °F /  21.1 °C 53.1 °F /  11.7 °C 30.05 in /  1017.5 hPa WSW 1.9 mph /  3.1 km/h 6.0 mph /  9.7 km/h 55 % 0.00 in /  0 mm
18:29 69.7 °F /  20.9 °C 52.8 °F /  11.6 °C 30.05 in /  1017.5 hPa West 3.1 mph /  5 km/h 5.8 mph /  9.3 km/h 55 % 0.00 in /  0 mm
18:34 69.4 °F /  20.8 °C 52.5 °F /  11.4 °C 30.05 in /  1017.5 hPa Calm   2.3 mph /  3.7 km/h 55 % 0.00 in /  0 mm
18:39 69.2 °F /  20.7 °C 52.8 °F /  11.6 °C 30.05 in /  1017.5 hPa WNW 2.0 mph /  3.2 km/h 5.8 mph /  9.3 km/h 56 % 0.00 in /  0 mm
18:44 69.0 °F /  20.6 °C 53.1 °F /  11.7 °C 30.05 in /  1017.5 hPa SW 0.6 mph /  1 km/h 6.9 mph /  11.1 km/h 57 % 0.00 in /  0 mm
18:49 68.7 °F /  20.4 °C 52.8 °F /  11.6 °C 30.05 in /  1017.5 hPa NW 4.3 mph /  6.9 km/h 5.8 mph /  9.3 km/h 57 % 0.00 in /  0 mm
18:53 68.6 °F /  20.3 °C 52.8 °F /  11.6 °C 30.05 in /  1017.5 hPa WSW 3.2 mph /  5.1 km/h 3.5 mph /  5.6 km/h 57 % 0.00 in /  0 mm
18:58 68.4 °F /  20.2 °C 52.6 °F /  11.4 °C 30.05 in /  1017.5 hPa West 2.3 mph /  3.7 km/h 5.8 mph /  9.3 km/h 57 % 0.00 in /  0 mm
19:03 68.2 °F /  20.1 °C 52.4 °F /  11.3 °C 30.05 in /  1017.5 hPa West 2.0 mph /  3.2 km/h 10.4 mph /  16.7 km/h 57 % 0.00 in /  0 mm
19:08 68.0 °F /  20 °C 52.2 °F /  11.2 °C 30.05 in /  1017.5 hPa WSW 1.3 mph /  2.1 km/h 4.6 mph /  7.4 km/h 57 % 0.00 in /  0 mm
19:13 67.9 °F /  19.9 °C 53.0 °F /  11.7 °C 30.06 in /  1017.8 hPa WSW 1.9 mph /  3.1 km/h 11.0 mph /  17.7 km/h 59 % 0.00 in /  0 mm
19:18 67.7 °F /  19.8 °C 52.9 °F /  11.6 °C 30.06 in /  1017.8 hPa West 0.7 mph /  1.1 km/h 3.5 mph /  5.6 km/h 59 % 0.00 in /  0 mm
19:23 67.5 °F /  19.7 °C 53.1 °F /  11.7 °C 30.06 in /  1017.8 hPa SW 1.8 mph /  2.9 km/h 4.0 mph /  6.4 km/h 60 % 0.00 in /  0 mm
19:28 67.3 °F /  19.6 °C 52.9 °F /  11.6 °C 30.06 in /  1017.8 hPa WNW 3.2 mph /  5.1 km/h 5.8 mph /  9.3 km/h 60 % 0.00 in /  0 mm
19:34 67.1 °F /  19.5 °C 52.7 °F /  11.5 °C 30.06 in /  1017.8 hPa WNW 0.6 mph /  1 km/h 3.5 mph /  5.6 km/h 60 % 0.00 in /  0 mm
19:39 67.0 °F /  19.4 °C 53.1 °F /  11.7 °C 30.06 in /  1017.8 hPa West 2.9 mph /  4.7 km/h 2.9 mph /  4.7 km/h 61 % 0.00 in /  0 mm
19:44 66.9 °F /  19.4 °C 53.0 °F /  11.7 °C 30.06 in /  1017.8 hPa NW 0.9 mph /  1.4 km/h 5.8 mph /  9.3 km/h 61 % 0.00 in /  0 mm
19:49 66.8 °F /  19.3 °C 53.4 °F /  11.9 °C 30.07 in /  1018.2 hPa NW 1.3 mph /  2.1 km/h 5.8 mph /  9.3 km/h 62 % 0.00 in /  0 mm
19:51 66.8 °F /  19.3 °C 53.8 °F /  12.1 °C 30.06 in /  1017.8 hPa WNW 2.8 mph /  4.5 km/h 5.8 mph /  9.3 km/h 63 % 0.00 in /  0 mm
19:56 66.7 °F /  19.3 °C 53.3 °F /  11.8 °C 30.07 in /  1018.2 hPa WNW 2.3 mph /  3.7 km/h 4.6 mph /  7.4 km/h 62 % 0.00 in /  0 mm
20:01 66.6 °F /  19.2 °C 53.6 °F /  12 °C 30.07 in /  1018.2 hPa WNW 4.9 mph /  7.9 km/h 6.0 mph /  9.7 km/h 63 % 0.00 in /  0 mm
20:06 66.5 °F /  19.2 °C 53.1 °F /  11.7 °C 30.07 in /  1018.2 hPa West 3.8 mph /  6.1 km/h 8.0 mph /  12.9 km/h 62 % 0.00 in /  0 mm
20:08 66.5 °F /  19.2 °C 53.5 °F /  11.9 °C 30.07 in /  1018.2 hPa WNW 1.2 mph /  1.9 km/h 8.1 mph /  13 km/h 63 % 0.00 in /  0 mm
20:13 66.4 °F /  19.1 °C 53.4 °F /  11.9 °C 30.08 in /  1018.5 hPa West 3.2 mph /  5.1 km/h 5.8 mph /  9.3 km/h 63 % 0.00 in /  0 mm
20:18 66.4 °F /  19.1 °C 53.4 °F /  11.9 °C 30.08 in /  1018.5 hPa NNW 4.2 mph /  6.8 km/h 8.1 mph /  13 km/h 63 % 0.00 in /  0 mm
20:23 66.3 °F /  19.1 °C 53.8 °F /  12.1 °C 30.08 in /  1018.5 hPa SW 2.1 mph /  3.4 km/h 5.0 mph /  8 km/h 64 % 0.00 in /  0 mm
20:28 66.3 °F /  19.1 °C 53.8 °F /  12.1 °C 30.08 in /  1018.5 hPa West 1.7 mph /  2.7 km/h 4.6 mph /  7.4 km/h 64 % 0.00 in /  0 mm
20:33 66.2 °F /  19 °C 53.7 °F /  12.1 °C 30.09 in /  1018.8 hPa WNW 0.8 mph /  1.3 km/h 4.0 mph /  6.4 km/h 64 % 0.00 in /  0 mm
20:38 66.1 °F /  18.9 °C 53.6 °F /  12 °C 30.09 in /  1018.8 hPa WNW 0.7 mph /  1.1 km/h 4.0 mph /  6.4 km/h 64 % 0.00 in /  0 mm
20:43 66.0 °F /  18.9 °C 53.9 °F /  12.2 °C 30.09 in /  1018.8 hPa WNW 3.3 mph /  5.3 km/h 5.0 mph /  8 km/h 65 % 0.00 in /  0 mm
20:48 65.9 °F /  18.8 °C 53.8 °F /  12.1 °C 30.09 in /  1018.8 hPa NW 4.2 mph /  6.8 km/h 8.1 mph /  13 km/h 65 % 0.00 in /  0 mm
20:53 65.8 °F /  18.8 °C 53.7 °F /  12.1 °C 30.09 in /  1018.8 hPa WNW 1.6 mph /  2.6 km/h 8.0 mph /  12.9 km/h 65 % 0.00 in /  0 mm
20:58 65.8 °F /  18.8 °C 53.7 °F /  12.1 °C 30.09 in /  1018.8 hPa West 1.8 mph /  2.9 km/h 9.2 mph /  14.8 km/h 65 % 0.00 in /  0 mm
21:03 65.7 °F /  18.7 °C 53.6 °F /  12 °C 30.09 in /  1018.8 hPa WNW 5.2 mph /  8.4 km/h 10.4 mph /  16.7 km/h 65 % 0.00 in /  0 mm
21:08 65.7 °F /  18.7 °C 53.6 °F /  12 °C 30.09 in /  1018.8 hPa NW 2.6 mph /  4.2 km/h 6.9 mph /  11.1 km/h 65 % 0.00 in /  0 mm
21:13 65.6 °F /  18.7 °C 53.9 °F /  12.2 °C 30.09 in /  1018.8 hPa WNW 1.7 mph /  2.7 km/h 8.1 mph /  13 km/h 66 % 0.00 in /  0 mm
21:18 65.6 °F /  18.7 °C 53.9 °F /  12.2 °C 30.09 in /  1018.8 hPa West 6.7 mph /  10.8 km/h 9.2 mph /  14.8 km/h 66 % 0.00 in /  0 mm
21:23 65.5 °F /  18.6 °C 54.2 °F /  12.3 °C 30.09 in /  1018.8 hPa West 6.4 mph /  10.3 km/h 9.2 mph /  14.8 km/h 67 % 0.00 in /  0 mm
21:28 65.5 °F /  18.6 °C 54.2 °F /  12.3 °C 30.09 in /  1018.8 hPa West 3.5 mph /  5.6 km/h 8.1 mph /  13 km/h 67 % 0.00 in /  0 mm
21:33 65.4 °F /  18.6 °C 54.6 °F /  12.6 °C 30.09 in /  1018.8 hPa West 5.0 mph /  8 km/h 8.0 mph /  12.9 km/h 68 % 0.00 in /  0 mm
21:38 65.3 °F /  18.5 °C 54.5 °F /  12.5 °C 30.09 in /  1018.8 hPa WNW 4.8 mph /  7.7 km/h 8.1 mph /  13 km/h 68 % 0.00 in /  0 mm
21:43 65.2 °F /  18.4 °C 54.8 °F /  12.7 °C 30.09 in /  1018.8 hPa WNW 2.7 mph /  4.3 km/h 6.9 mph /  11.1 km/h 69 % 0.00 in /  0 mm
21:48 65.1 °F /  18.4 °C 54.7 °F /  12.6 °C 30.10 in /  1019.2 hPa NW 0.8 mph /  1.3 km/h 4.6 mph /  7.4 km/h 69 % 0.00 in /  0 mm
21:54 65.0 °F /  18.3 °C 55.0 °F /  12.8 °C 30.10 in /  1019.2 hPa NE 0.5 mph /  0.8 km/h 5.8 mph /  9.3 km/h 70 % 0.00 in /  0 mm
21:59 64.9 °F /  18.3 °C 54.5 °F /  12.5 °C 30.10 in /  1019.2 hPa WNW 3.2 mph /  5.1 km/h 8.1 mph /  13 km/h 69 % 0.00 in /  0 mm
22:04 64.7 °F /  18.2 °C 54.3 °F /  12.4 °C 30.11 in /  1019.5 hPa WNW 3.4 mph /  5.5 km/h 9.2 mph /  14.8 km/h 69 % 0.00 in /  0 mm
22:09 64.5 °F /  18.1 °C 54.1 °F /  12.3 °C 30.10 in /  1019.2 hPa WNW 1.9 mph /  3.1 km/h 5.8 mph /  9.3 km/h 69 % 0.00 in /  0 mm
22:14 64.5 °F /  18.1 °C 54.5 °F /  12.5 °C 30.11 in /  1019.5 hPa WNW 2.4 mph /  3.9 km/h 5.8 mph /  9.3 km/h 70 % 0.00 in /  0 mm
22:19 64.4 °F /  18 °C 54.4 °F /  12.4 °C 30.11 in /  1019.5 hPa West 2.5 mph /  4 km/h 7.0 mph /  11.3 km/h 70 % 0.00 in /  0 mm
22:24 64.2 °F /  17.9 °C 54.2 °F /  12.3 °C 30.11 in /  1019.5 hPa West 4.6 mph /  7.4 km/h 6.9 mph /  11.1 km/h 70 % 0.00 in /  0 mm
22:29 64.1 °F /  17.8 °C 54.5 °F /  12.5 °C 30.11 in /  1019.5 hPa North 1.9 mph /  3.1 km/h 5.8 mph /  9.3 km/h 71 % 0.00 in /  0 mm
22:34 64.0 °F /  17.8 °C 54.8 °F /  12.7 °C 30.11 in /  1019.5 hPa NNW 2.0 mph /  3.2 km/h 5.8 mph /  9.3 km/h 72 % 0.00 in /  0 mm
22:39 63.9 °F /  17.7 °C 54.7 °F /  12.6 °C 30.11 in /  1019.5 hPa NNW 0.6 mph /  1 km/h 3.0 mph /  4.8 km/h 72 % 0.00 in /  0 mm
22:44 63.7 °F /  17.6 °C 54.9 °F /  12.7 °C 30.11 in /  1019.5 hPa NNE 1.4 mph /  2.3 km/h 8.1 mph /  13 km/h 73 % 0.00 in /  0 mm
22:49 63.5 °F /  17.5 °C 54.7 °F /  12.6 °C 30.11 in /  1019.5 hPa North 0.3 mph /  0.5 km/h 1.2 mph /  1.9 km/h 73 % 0.00 in /  0 mm
22:54 63.4 °F /  17.4 °C 54.6 °F /  12.6 °C 30.11 in /  1019.5 hPa NW 1.0 mph /  1.6 km/h 2.3 mph /  3.7 km/h 73 % 0.00 in /  0 mm
22:59 63.3 °F /  17.4 °C 54.9 °F /  12.7 °C 30.11 in /  1019.5 hPa Calm   1.2 mph /  1.9 km/h 74 % 0.00 in /  0 mm
23:04 63.1 °F /  17.3 °C 54.7 °F /  12.6 °C 30.11 in /  1019.5 hPa WNW 2.3 mph /  3.7 km/h 3.5 mph /  5.6 km/h 74 % 0.00 in /  0 mm
23:10 63.0 °F /  17.2 °C 54.9 °F /  12.7 °C 30.11 in /  1019.5 hPa NW 2.1 mph /  3.4 km/h 3.5 mph /  5.6 km/h 75 % 0.00 in /  0 mm
23:15 62.8 °F /  17.1 °C 54.8 °F /  12.7 °C 30.11 in /  1019.5 hPa NW 0.8 mph /  1.3 km/h 3.5 mph /  5.6 km/h 75 % 0.00 in /  0 mm
23:20 62.6 °F /  17 °C 54.9 °F /  12.7 °C 30.11 in /  1019.5 hPa NW 0.6 mph /  1 km/h 2.0 mph /  3.2 km/h 76 % 0.00 in /  0 mm
23:21 62.6 °F /  17 °C 54.9 °F /  12.7 °C 30.11 in /  1019.5 hPa NW 0.9 mph /  1.4 km/h 2.0 mph /  3.2 km/h 76 % 0.00 in /  0 mm
23:23 62.5 °F /  16.9 °C 54.8 °F /  12.7 °C 30.11 in /  1019.5 hPa Calm   2.3 mph /  3.7 km/h 76 % 0.00 in /  0 mm
23:26 62.4 °F /  16.9 °C 54.7 °F /  12.6 °C 30.11 in /  1019.5 hPa North 0.7 mph /  1.1 km/h 3.5 mph /  5.6 km/h 76 % 0.00 in /  0 mm
23:31 62.2 °F /  16.8 °C 54.5 °F /  12.5 °C 30.11 in /  1019.5 hPa NW 0.6 mph /  1 km/h 1.0 mph /  1.6 km/h 76 % 0.00 in /  0 mm
23:36 62.1 °F /  16.7 °C 54.4 °F /  12.4 °C 30.11 in /  1019.5 hPa NNW 1.8 mph /  2.9 km/h 3.5 mph /  5.6 km/h 76 % 0.00 in /  0 mm
23:41 61.8 °F /  16.6 °C 53.8 °F /  12.1 °C 30.11 in /  1019.5 hPa North 1.2 mph /  1.9 km/h 3.5 mph /  5.6 km/h 75 % 0.00 in /  0 mm
23:46 61.6 °F /  16.4 °C 53.6 °F /  12 °C 30.11 in /  1019.5 hPa NNE 3.0 mph /  4.8 km/h 4.0 mph /  6.4 km/h 75 % 0.00 in /  0 mm
23:52 61.5 °F /  16.4 °C 53.5 °F /  11.9 °C 30.12 in /  1019.9 hPa Calm   3.5 mph /  5.6 km/h 75 % 0.00 in /  0 mm
23:56 61.4 °F /  16.3 °C 53.8 °F /  12.1 °C 30.11 in /  1019.5 hPa North 1.5 mph /  2.4 km/h 3.0 mph /  4.8 km/h 76 % 0.00 in /  0 mm
Crab Meadow Weather
Compliments of Weather Underground - 3 mb

Script developed by  Jim McMurry - jmcmurry@mwt.net Adapted for the template by  Wim van der Kuil - Leuven-Template.eu

Astronomy: The Sun is around 4.5 billion years old.